createdAt,value
2019-01-28T00:02:23.193Z,4.80
2019-01-28T00:04:55.025Z,4.40
2019-01-28T00:07:27.942Z,4.70
2019-01-28T00:09:59.751Z,4.80
2019-01-28T00:12:31.585Z,4.25
2019-01-28T00:15:03.422Z,4.20
2019-01-28T00:17:36.876Z,4.33
2019-01-28T00:20:09.114Z,4.47
2019-01-28T00:22:40.949Z,4.10
2019-01-28T00:25:12.741Z,3.77
2019-01-28T00:27:44.564Z,4.17
2019-01-28T00:30:16.588Z,3.72
2019-01-28T00:32:48.421Z,3.90
2019-01-28T00:35:20.275Z,3.27
2019-01-28T00:37:52.102Z,4.05
2019-01-28T00:40:23.918Z,3.85
2019-01-28T00:42:55.724Z,4.10
2019-01-28T00:45:27.562Z,4.17
2019-01-28T00:47:59.363Z,4.12
2019-01-28T00:50:31.225Z,4.03
2019-01-28T00:53:03.421Z,3.83
2019-01-28T00:55:35.264Z,4.10
2019-01-28T00:58:07.098Z,3.10
2019-01-28T01:00:40.867Z,3.37
2019-01-28T01:03:12.677Z,3.50
2019-01-28T01:05:44.507Z,3.65
2019-01-28T01:08:16.328Z,3.42
2019-01-28T01:10:48.158Z,3.35
2019-01-28T01:13:19.953Z,3.20
2019-01-28T01:15:53.317Z,3.10
2019-01-28T01:18:25.125Z,2.50
2019-01-28T01:20:56.938Z,2.95
2019-01-28T01:23:28.768Z,3.10
2019-01-28T01:26:03.588Z,3.25
2019-01-28T01:28:35.391Z,2.95
2019-01-28T01:31:09.542Z,3.30
2019-01-28T01:33:43.677Z,2.98
2019-01-28T01:36:15.480Z,2.85
2019-01-28T01:38:47.307Z,2.95
2019-01-28T01:41:19.118Z,2.67
2019-01-28T01:43:50.958Z,2.52
2019-01-28T01:46:22.770Z,2.30
2019-01-28T01:48:54.609Z,2.58
2019-01-28T01:51:26.404Z,2.60
2019-01-28T01:53:58.220Z,2.65
2019-01-28T01:56:30.037Z,2.60
2019-01-28T01:59:01.870Z,2.20
2019-01-28T02:01:33.666Z,2.83
2019-01-28T02:04:05.621Z,2.17
2019-01-28T02:06:42.060Z,2.02
2019-01-28T02:09:13.889Z,2.30
2019-01-28T02:11:45.682Z,2.70
2019-01-28T02:14:18.290Z,2.00
2019-01-28T02:16:50.127Z,2.17
2019-01-28T02:19:21.922Z,2.30
2019-01-28T02:21:53.743Z,1.80
2019-01-28T02:24:25.735Z,2.00
2019-01-28T02:26:57.657Z,1.70
2019-01-28T02:29:29.474Z,2.00
2019-01-28T02:32:01.287Z,1.87
2019-01-28T02:34:33.184Z,1.70
2019-01-28T02:37:04.994Z,2.20
2019-01-28T02:39:36.858Z,2.10
2019-01-28T02:42:08.688Z,2.00
2019-01-28T02:44:41.573Z,2.15
2019-01-28T02:47:13.803Z,1.95
2019-01-28T02:49:47.154Z,1.60
2019-01-28T02:52:19.000Z,1.90
2019-01-28T02:54:50.789Z,1.90
2019-01-28T02:57:22.704Z,1.85
2019-01-28T02:59:54.509Z,1.70
2019-01-28T03:02:26.342Z,2.27
2019-01-28T03:05:00.606Z,1.77
2019-01-28T03:07:32.407Z,1.50
2019-01-28T03:10:04.689Z,2.00
2019-01-28T03:12:36.512Z,1.90
2019-01-28T03:15:10.286Z,2.37
2019-01-28T03:17:42.217Z,3.20
2019-01-28T03:20:14.883Z,3.20
2019-01-28T03:22:46.742Z,2.30
2019-01-28T03:25:24.193Z,1.95
2019-01-28T03:27:55.949Z,1.85
2019-01-28T03:30:27.784Z,2.20
2019-01-28T03:32:59.581Z,1.70
2019-01-28T03:35:31.403Z,1.70
2019-01-28T03:38:03.212Z,1.80
2019-01-28T03:40:35.041Z,2.02
2019-01-28T03:43:06.840Z,1.90
2019-01-28T03:45:38.665Z,1.80
2019-01-28T03:48:10.470Z,2.02
2019-01-28T03:50:42.359Z,1.50
2019-01-28T03:53:14.621Z,1.30
2019-01-28T03:55:46.458Z,1.65
2019-01-28T03:58:20.636Z,1.90
2019-01-28T04:00:52.432Z,1.20
2019-01-28T04:03:25.824Z,1.17
2019-01-28T04:05:57.643Z,1.40
2019-01-28T04:08:32.287Z,1.50
2019-01-28T04:11:04.174Z,1.17
2019-01-28T04:13:36.082Z,1.20
2019-01-28T04:16:07.876Z,1.30
2019-01-28T04:18:39.698Z,1.40
2019-01-28T04:21:11.491Z,1.20
2019-01-28T04:23:45.431Z,1.10
2019-01-28T04:26:16.993Z,1.00
2019-01-28T04:28:48.830Z,1.17
2019-01-28T04:31:20.633Z,1.12
2019-01-28T04:33:52.458Z,1.10
2019-01-28T04:36:24.260Z,0.95
2019-01-28T04:38:56.248Z,0.95
2019-01-28T04:41:28.057Z,1.10
2019-01-28T04:43:59.878Z,0.90
2019-01-28T04:46:31.683Z,1.20
2019-01-28T04:49:03.496Z,0.90
2019-01-28T04:51:35.329Z,0.98
2019-01-28T04:54:07.259Z,1.25
2019-01-28T04:56:41.622Z,1.30
2019-01-28T04:59:13.455Z,1.05
2019-01-28T05:01:45.270Z,1.00
2019-01-28T05:04:17.097Z,1.00
2019-01-28T05:06:48.916Z,0.80
2019-01-28T05:09:20.731Z,1.20
2019-01-28T05:11:52.538Z,1.00
2019-01-28T05:14:24.329Z,0.90
2019-01-28T05:16:56.183Z,1.00
2019-01-28T05:19:27.982Z,1.12
2019-01-28T05:21:59.810Z,0.80
2019-01-28T05:24:31.633Z,1.05
2019-01-28T05:27:03.449Z,1.37
2019-01-28T05:29:35.267Z,1.00
2019-01-28T05:32:07.356Z,1.20
2019-01-28T05:34:39.181Z,1.00
2019-01-28T05:37:11.786Z,1.00
2019-01-28T05:39:43.601Z,1.07
2019-01-28T05:42:18.408Z,0.80
2019-01-28T05:44:52.956Z,0.85
2019-01-28T05:47:24.784Z,1.10
2019-01-28T05:49:56.604Z,0.90
2019-01-28T05:52:28.414Z,1.00
2019-01-28T05:55:00.260Z,1.22
2019-01-28T05:57:32.044Z,1.20
2019-01-28T06:00:04.166Z,1.72
2019-01-28T06:02:38.791Z,5.30
2019-01-28T06:05:10.875Z,4.33
2019-01-28T06:07:42.677Z,2.25
2019-01-28T06:10:15.083Z,2.47
2019-01-28T06:12:48.412Z,2.20
2019-01-28T06:15:20.483Z,1.40
2019-01-28T06:17:52.278Z,2.77
2019-01-28T06:20:24.652Z,2.42
2019-01-28T06:22:58.093Z,2.52
2019-01-28T06:25:29.956Z,2.47
2019-01-28T06:28:01.781Z,2.20
2019-01-28T06:30:33.921Z,1.85
2019-01-28T06:33:05.791Z,1.35
2019-01-28T06:35:37.594Z,1.10
2019-01-28T06:38:09.406Z,1.27
2019-01-28T06:40:41.211Z,1.57
2019-01-28T06:43:13.050Z,3.52
2019-01-28T06:45:44.847Z,0.80
2019-01-28T06:48:16.681Z,1.15
2019-01-28T06:50:48.494Z,0.80
2019-01-28T06:53:20.490Z,0.85
2019-01-28T06:55:52.309Z,0.98
2019-01-28T06:58:24.141Z,1.02
2019-01-28T07:00:55.939Z,0.93
2019-01-28T07:03:27.763Z,0.90
2019-01-28T07:05:59.592Z,1.22
2019-01-28T07:08:31.418Z,1.00
2019-01-28T07:11:03.239Z,1.15
2019-01-28T07:13:35.063Z,1.00
2019-01-28T07:16:06.964Z,1.00
2019-01-28T07:18:38.792Z,1.10
2019-01-28T07:21:10.625Z,1.17
2019-01-28T07:23:42.442Z,1.20
2019-01-28T07:26:14.274Z,1.27
2019-01-28T07:28:47.161Z,1.30
2019-01-28T07:31:18.997Z,1.25
2019-01-28T07:33:50.821Z,1.02
2019-01-28T07:36:22.806Z,1.30
2019-01-28T07:38:54.639Z,1.37
2019-01-28T07:41:29.430Z,1.40
2019-01-28T07:44:02.302Z,1.10
2019-01-28T07:46:34.111Z,4.30
2019-01-28T07:49:05.951Z,1.25
2019-01-28T07:51:41.050Z,1.47
2019-01-28T07:54:12.885Z,1.30
2019-01-28T07:56:44.758Z,1.77
2019-01-28T07:59:16.671Z,1.70
2019-01-28T08:01:48.429Z,1.30
2019-01-28T08:04:20.237Z,1.35
2019-01-28T08:06:59.369Z,1.15
2019-01-28T08:09:25.623Z,1.40
2019-01-28T08:11:57.421Z,1.15
2019-01-28T08:14:31.082Z,1.42
2019-01-28T08:17:05.010Z,1.15
2019-01-28T08:19:36.910Z,1.45
2019-01-28T08:22:12.497Z,1.00
2019-01-28T08:24:47.536Z,1.30
2019-01-28T08:27:24.880Z,1.85
2019-01-28T08:30:04.123Z,1.40
2019-01-28T08:32:37.126Z,1.25
2019-01-28T08:35:09.570Z,1.20
2019-01-28T08:37:43.052Z,1.27
2019-01-28T08:40:15.348Z,1.40
2019-01-28T08:42:50.260Z,1.30
2019-01-28T08:45:20.729Z,1.60
2019-01-28T08:47:55.058Z,2.10
2019-01-28T08:50:30.007Z,2.00
2019-01-28T08:53:04.966Z,1.30
2019-01-28T08:55:39.847Z,1.50
2019-01-28T08:58:15.055Z,2.15
2019-01-28T09:00:46.881Z,1.75
2019-01-28T09:03:18.781Z,1.65
2019-01-28T09:05:50.668Z,1.95
2019-01-28T09:08:24.081Z,1.90
2019-01-28T09:11:00.609Z,1.70
2019-01-28T09:13:32.475Z,1.30
2019-01-28T09:16:08.285Z,1.40
2019-01-28T09:18:40.200Z,1.80
2019-01-28T09:21:12.018Z,2.05
2019-01-28T09:23:43.854Z,1.30
2019-01-28T09:26:17.163Z,1.20
2019-01-28T09:28:50.266Z,1.35
2019-01-28T09:31:22.214Z,1.65
2019-01-28T09:33:56.406Z,1.20
2019-01-28T09:36:30.577Z,1.10
2019-01-28T09:39:04.057Z,1.02
2019-01-28T09:41:36.941Z,1.17
2019-01-28T09:44:08.962Z,1.00
2019-01-28T09:46:42.445Z,1.57
2019-01-28T09:49:16.092Z,1.50
2019-01-28T09:51:49.423Z,1.00
2019-01-28T09:54:21.277Z,1.55
2019-01-28T09:56:55.843Z,1.20
2019-01-28T09:59:35.226Z,1.30
2019-01-28T10:02:09.053Z,1.17
2019-01-28T10:04:42.198Z,1.20
2019-01-28T10:07:14.046Z,1.35
2019-01-28T10:09:45.854Z,0.82
2019-01-28T10:12:17.897Z,1.05
2019-01-28T10:14:53.474Z,0.95
2019-01-28T10:17:25.269Z,1.25
2019-01-28T10:19:57.083Z,1.10
2019-01-28T10:22:28.996Z,0.85
2019-01-28T10:25:02.791Z,1.12
2019-01-28T10:27:41.672Z,1.25
2019-01-28T10:30:17.654Z,1.00
2019-01-28T10:32:49.497Z,0.93
2019-01-28T10:35:23.872Z,1.15
2019-01-28T10:38:01.978Z,1.17
2019-01-28T10:40:38.436Z,0.80
2019-01-28T10:43:11.123Z,1.15
2019-01-28T10:45:43.929Z,1.00
2019-01-28T10:48:15.748Z,1.20
2019-01-28T10:50:47.743Z,0.93
2019-01-28T10:53:19.639Z,1.10
2019-01-28T10:55:52.606Z,1.30
2019-01-28T10:58:24.416Z,1.07
2019-01-28T11:00:56.346Z,0.98
2019-01-28T11:03:29.821Z,1.60
2019-01-28T11:06:03.767Z,1.40
2019-01-28T11:08:35.605Z,1.85
2019-01-28T11:11:42.468Z,1.55
2019-01-28T11:14:14.461Z,1.45
2019-01-28T11:16:49.382Z,1.77
2019-01-28T11:19:21.399Z,1.25
2019-01-28T11:21:53.243Z,1.30
2019-01-28T11:24:30.079Z,1.20
2019-01-28T11:27:03.038Z,0.90
2019-01-28T11:29:39.274Z,1.60
2019-01-28T11:32:11.079Z,1.17
2019-01-28T11:34:50.763Z,1.20
2019-01-28T11:37:22.672Z,1.10
2019-01-28T11:39:57.635Z,1.02
2019-01-28T11:42:31.409Z,1.35
2019-01-28T11:45:24.867Z,1.20
2019-01-28T11:47:59.133Z,1.05
2019-01-28T11:50:31.013Z,0.75
2019-01-28T11:53:02.877Z,1.45
2019-01-28T11:55:34.682Z,1.27
2019-01-28T11:58:06.958Z,1.20
2019-01-28T12:01:01.084Z,1.50
2019-01-28T12:03:33.025Z,1.00
2019-01-28T12:06:06.419Z,1.40
2019-01-28T12:24:28.077Z,1.72
2019-01-28T12:27:04.404Z,1.50
2019-01-28T12:29:38.648Z,1.20
2019-01-28T12:32:12.557Z,1.27
2019-01-28T12:34:44.424Z,1.70
2019-01-28T12:37:17.830Z,1.30
2019-01-28T12:43:48.172Z,1.37
2019-01-28T12:46:30.974Z,1.60
2019-01-28T12:51:58.802Z,2.12
2019-01-28T12:55:03.366Z,2.20
2019-01-28T12:57:41.135Z,1.95
2019-01-28T13:00:30.015Z,2.00
2019-01-28T13:04:05.879Z,1.80
2019-01-28T13:06:40.579Z,1.75
2019-01-28T13:09:33.593Z,2.00
2019-01-28T13:14:57.785Z,1.45
2019-01-28T13:17:41.222Z,1.77
2019-01-28T13:20:21.452Z,1.98
2019-01-28T13:23:04.918Z,1.77
2019-01-28T13:25:39.882Z,1.87
2019-01-28T13:28:19.772Z,1.90
2019-01-28T13:30:57.151Z,1.80
2019-01-28T13:33:31.318Z,2.20
2019-01-28T13:39:05.015Z,1.57
2019-01-28T13:41:52.892Z,1.70
2019-01-28T13:44:46.793Z,1.52
2019-01-28T13:48:12.825Z,2.25
2019-01-28T13:50:25.041Z,1.70
2019-01-28T14:00:27.445Z,1.40
2019-01-28T14:03:03.846Z,1.50
2019-01-28T14:05:38.799Z,1.52
2019-01-28T14:08:13.590Z,1.30
2019-01-28T14:10:53.989Z,1.50
2019-01-28T14:13:25.816Z,1.50
2019-01-28T14:15:57.739Z,1.60
2019-01-28T14:18:29.567Z,1.22
2019-01-28T14:21:05.576Z,1.30
2019-01-28T14:23:37.396Z,1.20
2019-01-28T14:26:09.237Z,1.00
2019-01-28T14:28:41.130Z,1.50
2019-01-28T14:31:14.137Z,1.30
2019-01-28T14:33:45.994Z,1.60
2019-01-28T14:36:17.850Z,2.30
2019-01-28T14:38:49.672Z,1.42
2019-01-28T14:41:21.553Z,2.90
2019-01-28T14:43:54.359Z,2.62
2019-01-28T14:46:26.240Z,2.25
2019-01-28T14:48:58.286Z,2.90
2019-01-28T14:51:30.815Z,3.00
2019-01-28T14:54:02.670Z,3.15
2019-01-28T14:56:34.705Z,2.85
2019-01-28T14:59:07.095Z,2.00
2019-01-28T15:01:38.925Z,1.70
2019-01-28T15:04:12.850Z,1.60
2019-01-28T15:06:44.714Z,1.42
2019-01-28T15:09:16.660Z,1.60
2019-01-28T15:11:48.596Z,1.50
2019-01-28T15:14:21.485Z,1.27
2019-01-28T15:16:53.324Z,1.22
2019-01-28T15:19:25.238Z,1.55
2019-01-28T15:21:57.097Z,1.35
2019-01-28T15:24:28.945Z,1.67
2019-01-28T15:27:00.792Z,1.50
2019-01-28T15:29:32.715Z,1.25
2019-01-28T15:32:04.605Z,1.60
2019-01-28T15:34:36.491Z,1.30
2019-01-28T15:37:08.404Z,1.70
2019-01-28T15:39:40.255Z,1.57
2019-01-28T15:42:14.600Z,1.40
2019-01-28T15:44:46.438Z,1.70
2019-01-28T15:47:18.328Z,1.42
2019-01-28T15:49:50.284Z,1.77
2019-01-28T15:52:22.145Z,1.50
2019-01-28T15:54:53.994Z,1.87
2019-01-28T15:57:25.888Z,1.85
2019-01-28T15:59:57.809Z,2.42
2019-01-28T16:02:29.698Z,2.83
2019-01-28T16:05:03.387Z,2.15
2019-01-28T16:07:38.191Z,2.85
2019-01-28T16:10:18.390Z,2.58
2019-01-28T16:12:52.797Z,2.20
2019-01-28T16:15:29.078Z,2.70
2019-01-28T16:18:00.976Z,1.90
2019-01-28T16:20:35.434Z,1.75
2019-01-28T16:23:10.874Z,2.30
2019-01-28T16:25:42.738Z,2.10
2019-01-28T16:28:14.630Z,1.80
2019-01-28T16:30:46.536Z,2.35
2019-01-28T16:33:20.010Z,1.77
2019-01-28T16:35:51.953Z,2.40
2019-01-28T16:38:23.860Z,1.95
2019-01-28T16:40:55.724Z,2.47
2019-01-28T16:43:28.809Z,2.50
2019-01-28T16:47:13.375Z,2.00
2019-01-28T16:49:48.631Z,2.37
2019-01-28T16:52:20.630Z,3.08
2019-01-28T16:54:53.566Z,2.95
2019-01-28T16:57:26.996Z,2.87
2019-01-28T16:59:58.879Z,3.25
2019-01-28T17:02:30.695Z,3.10
2019-01-28T17:05:03.660Z,3.47
2019-01-28T17:07:38.566Z,3.20
2019-01-28T17:10:11.346Z,3.37
2019-01-28T17:12:43.175Z,4.12
2019-01-28T17:15:16.458Z,4.53
2019-01-28T17:17:48.334Z,3.75
2019-01-28T17:20:25.837Z,4.17
2019-01-28T17:22:57.993Z,4.03
2019-01-28T17:25:36.706Z,4.25
2019-01-28T17:28:10.837Z,5.83
2019-01-28T17:30:45.760Z,4.20
2019-01-28T17:33:18.540Z,5.08
2019-01-28T17:35:50.272Z,4.40
2019-01-28T17:38:22.093Z,5.70
2019-01-28T17:40:53.942Z,4.50
2019-01-28T17:43:25.906Z,4.95
2019-01-28T17:45:59.816Z,5.70
2019-01-28T17:48:33.188Z,11.93
2019-01-28T17:51:08.083Z,7.17
2019-01-28T17:53:40.925Z,7.05
2019-01-28T17:56:12.768Z,6.90
2019-01-28T17:58:44.666Z,5.70
2019-01-28T18:01:16.686Z,5.30
2019-01-28T18:03:48.553Z,4.80
2019-01-28T18:06:20.404Z,5.25
2019-01-28T18:08:54.754Z,5.53
2019-01-28T18:11:26.709Z,5.30
2019-01-28T18:14:01.609Z,5.83
2019-01-28T18:16:37.649Z,8.10
2019-01-28T18:19:09.565Z,6.22
2019-01-28T18:21:41.440Z,6.53
2019-01-28T18:24:13.339Z,5.90
2019-01-28T18:26:51.347Z,6.50
2019-01-28T18:29:26.293Z,9.20
2019-01-28T18:32:02.280Z,7.60
2019-01-28T18:34:35.458Z,8.00
2019-01-28T18:37:10.369Z,8.10
2019-01-28T18:39:44.689Z,6.60
2019-01-28T18:42:27.116Z,8.73
2019-01-28T18:45:03.301Z,6.60
2019-01-28T18:47:35.204Z,6.55
2019-01-28T18:50:17.083Z,7.40
2019-01-28T18:52:51.870Z,6.60
2019-01-28T18:55:25.656Z,9.55
2019-01-28T18:57:58.236Z,9.15
2019-01-28T19:00:33.286Z,10.00
2019-01-28T19:03:13.232Z,11.40
2019-01-28T19:06:17.921Z,13.30
2019-01-28T19:09:18.880Z,9.75
2019-01-28T19:12:05.077Z,10.78
2019-01-28T19:14:57.926Z,10.00
2019-01-28T19:17:58.331Z,8.78
2019-01-28T19:20:53.953Z,9.80
2019-01-28T19:23:26.219Z,8.48
2019-01-28T19:25:58.101Z,8.90
2019-01-28T19:28:35.420Z,10.60
2019-01-28T19:31:16.409Z,8.70
2019-01-28T19:33:58.373Z,11.05
2019-01-28T19:36:24.129Z,11.05
2019-01-28T19:38:56.014Z,9.93
2019-01-28T19:41:31.046Z,11.18
2019-01-28T19:44:08.311Z,9.60
2019-01-28T19:46:41.828Z,9.48
2019-01-28T19:49:13.753Z,11.60
2019-01-28T19:51:45.791Z,9.83
2019-01-28T19:54:23.901Z,11.10
2019-01-28T19:56:55.926Z,12.03
2019-01-28T19:59:29.017Z,12.05
2019-01-28T20:02:07.697Z,10.38
2019-01-28T20:04:50.178Z,10.05
2019-01-28T20:07:37.207Z,11.30
2019-01-28T20:10:09.646Z,9.55
2019-01-28T20:12:43.218Z,10.78
2019-01-28T20:15:20.484Z,10.80
2019-01-28T20:17:52.474Z,10.05
2019-01-28T20:20:24.339Z,10.05
2019-01-28T20:22:59.142Z,9.90
2019-01-28T20:25:35.625Z,8.38
2019-01-28T20:28:07.704Z,8.53
2019-01-28T20:30:41.907Z,9.05
2019-01-28T20:33:13.823Z,8.58
2019-01-28T20:35:48.748Z,8.43
2019-01-28T20:38:24.246Z,7.90
2019-01-28T20:40:56.131Z,7.72
2019-01-28T20:43:29.594Z,7.97
2019-01-28T20:46:04.771Z,8.25
2019-01-28T20:48:36.807Z,8.58
2019-01-28T20:51:13.864Z,9.40
2019-01-28T20:53:45.767Z,10.38
2019-01-28T20:56:19.729Z,8.75
2019-01-28T20:58:51.567Z,9.50
2019-01-28T21:01:26.036Z,10.32
2019-01-28T21:03:57.895Z,6.60
2019-01-28T21:06:31.415Z,7.37
2019-01-28T21:09:04.842Z,8.28
2019-01-28T21:11:37.358Z,8.15
2019-01-28T21:14:09.219Z,8.95
2019-01-28T21:16:45.841Z,7.80
2019-01-28T21:19:17.733Z,7.35
2019-01-28T21:21:49.623Z,6.22
2019-01-28T21:24:21.900Z,6.87
2019-01-28T21:26:53.785Z,6.15
2019-01-28T21:29:28.944Z,6.30
2019-01-28T21:32:04.947Z,6.37
2019-01-28T21:34:41.782Z,6.53
2019-01-28T21:37:29.927Z,7.17
2019-01-28T21:40:04.559Z,6.40
2019-01-28T21:42:39.472Z,6.87
2019-01-28T21:45:15.893Z,6.80
2019-01-28T21:47:56.820Z,6.80
2019-01-28T21:50:31.202Z,6.45
2019-01-28T21:53:07.211Z,7.03
2019-01-28T21:55:41.814Z,7.05
2019-01-28T21:58:13.659Z,6.78
2019-01-28T22:00:45.604Z,6.95
2019-01-28T22:03:21.298Z,6.75
2019-01-28T22:05:52.243Z,6.30
2019-01-28T22:08:26.004Z,7.55
2019-01-28T22:11:00.775Z,6.60
2019-01-28T22:13:32.609Z,5.65
2019-01-28T22:16:04.543Z,6.22
2019-01-28T22:18:36.379Z,6.30
2019-01-28T22:21:15.066Z,6.30
2019-01-28T22:23:46.645Z,6.75
2019-01-28T22:26:21.411Z,6.50
2019-01-28T22:28:55.730Z,7.03
2019-01-28T22:31:30.513Z,6.65
2019-01-28T22:34:02.558Z,6.55
2019-01-28T22:36:40.828Z,6.55
2019-01-28T22:39:15.613Z,6.55
2019-01-28T22:41:47.576Z,7.20
2019-01-28T22:44:20.717Z,5.95
2019-01-28T22:46:55.019Z,7.25
2019-01-28T22:49:28.938Z,7.22
2019-01-28T22:52:07.776Z,7.00
2019-01-28T22:54:38.040Z,7.58
2019-01-28T22:57:11.252Z,6.40
2019-01-28T22:59:45.146Z,7.00
2019-01-28T23:02:18.211Z,7.20
2019-01-28T23:04:50.052Z,7.28
2019-01-28T23:07:21.912Z,7.60
2019-01-28T23:09:56.817Z,7.35
2019-01-28T23:12:29.985Z,8.58
2019-01-28T23:15:16.677Z,7.78
2019-01-28T23:17:50.578Z,7.50
2019-01-28T23:20:22.402Z,7.97
2019-01-28T23:22:54.278Z,7.70
2019-01-28T23:25:30.316Z,7.20
2019-01-28T23:28:03.456Z,7.40
2019-01-28T23:30:38.209Z,7.20
2019-01-28T23:33:10.508Z,8.55
2019-01-28T23:35:45.366Z,7.33
2019-01-28T23:38:17.204Z,6.80
2019-01-28T23:40:52.095Z,7.03
2019-01-28T23:43:23.941Z,7.80
2019-01-28T23:45:55.802Z,7.78
2019-01-28T23:48:32.137Z,7.45
2019-01-28T23:51:06.988Z,7.35
2019-01-28T23:53:41.777Z,6.90
2019-01-28T23:56:13.663Z,7.08
2019-01-28T23:58:49.876Z,7.40
